createdAt,value
2018-07-25T00:00:28.657Z,25.63
2018-07-25T00:01:28.664Z,25.62
2018-07-25T00:02:28.671Z,25.55
2018-07-25T00:03:28.678Z,25.63
2018-07-25T00:04:28.686Z,25.66
2018-07-25T00:05:28.692Z,25.65
2018-07-25T00:06:28.706Z,25.65
2018-07-25T00:07:28.706Z,25.54
2018-07-25T00:08:28.716Z,25.62
2018-07-25T00:09:28.721Z,25.46
2018-07-25T00:10:28.729Z,25.47
2018-07-25T00:11:28.736Z,25.47
2018-07-25T00:12:28.743Z,25.44
2018-07-25T00:13:28.752Z,25.48
2018-07-25T00:14:28.758Z,25.44
2018-07-25T00:15:28.764Z,25.31
2018-07-25T00:16:28.772Z,25.33
2018-07-25T00:17:28.780Z,25.29
2018-07-25T00:18:28.788Z,25.21
2018-07-25T00:19:28.795Z,25.16
2018-07-25T00:20:28.800Z,25.16
2018-07-25T00:21:28.839Z,25.16
2018-07-25T00:22:28.816Z,25.17
2018-07-25T00:23:28.822Z,25.10
2018-07-25T00:24:28.830Z,25.13
2018-07-25T00:25:28.843Z,25.11
2018-07-25T00:26:28.845Z,25.13
2018-07-25T00:27:28.853Z,25.04
2018-07-25T00:28:28.858Z,25.06
2018-07-25T00:29:28.867Z,25.03
2018-07-25T00:30:28.872Z,25.06
2018-07-25T00:31:28.878Z,24.98
2018-07-25T00:32:28.885Z,24.92
2018-07-25T00:33:28.893Z,24.91
2018-07-25T00:34:28.900Z,24.86
2018-07-25T00:35:28.908Z,24.89
2018-07-25T00:36:28.914Z,24.88
2018-07-25T00:37:28.921Z,24.88
2018-07-25T00:38:28.928Z,24.84
2018-07-25T00:39:28.936Z,24.85
2018-07-25T00:40:28.943Z,24.81
2018-07-25T00:41:28.949Z,24.78
2018-07-25T00:42:28.956Z,24.84
2018-07-25T00:43:28.962Z,24.85
2018-07-25T00:44:28.969Z,24.80
2018-07-25T00:45:28.978Z,24.80
2018-07-25T00:46:28.983Z,24.84
2018-07-25T00:47:28.989Z,24.85
2018-07-25T00:48:29.000Z,24.85
2018-07-25T00:49:29.005Z,24.76
2018-07-25T00:50:29.015Z,24.70
2018-07-25T00:51:29.018Z,24.77
2018-07-25T00:52:29.024Z,24.78
2018-07-25T00:53:29.031Z,24.77
2018-07-25T00:54:29.038Z,24.73
2018-07-25T00:55:29.067Z,24.73
2018-07-25T00:56:29.051Z,24.69
2018-07-25T00:57:29.058Z,24.69
2018-07-25T00:58:29.066Z,24.68
2018-07-25T00:59:29.070Z,24.73
2018-07-25T01:00:29.083Z,24.60
2018-07-25T01:01:29.113Z,24.61
2018-07-25T01:02:29.092Z,24.61
2018-07-25T01:03:29.098Z,24.61
2018-07-25T01:04:29.104Z,24.58
2018-07-25T01:05:29.112Z,24.50
2018-07-25T01:06:29.118Z,24.55
2018-07-25T01:07:29.124Z,24.54
2018-07-25T01:08:29.130Z,24.42
2018-07-25T01:09:29.139Z,24.43
2018-07-25T01:10:29.144Z,24.48
2018-07-25T01:11:29.149Z,24.36
2018-07-25T01:12:29.157Z,24.38
2018-07-25T01:13:29.163Z,24.29
2018-07-25T01:14:29.171Z,24.35
2018-07-25T01:15:29.176Z,24.28
2018-07-25T01:16:29.183Z,24.29
2018-07-25T01:17:29.194Z,24.18
2018-07-25T01:18:29.203Z,24.24
2018-07-25T01:19:29.202Z,24.17
2018-07-25T01:20:29.209Z,24.17
2018-07-25T01:21:29.216Z,24.13
2018-07-25T01:22:29.223Z,24.14
2018-07-25T01:23:29.226Z,24.08
2018-07-25T01:24:29.234Z,24.05
2018-07-25T01:25:29.241Z,24.01
2018-07-25T01:26:29.248Z,23.99
2018-07-25T01:27:29.256Z,23.92
2018-07-25T01:28:29.259Z,23.91
2018-07-25T01:29:29.265Z,23.86
2018-07-25T01:30:29.274Z,23.93
2018-07-25T01:31:29.279Z,23.80
2018-07-25T01:32:29.286Z,23.76
2018-07-25T01:33:29.292Z,23.73
2018-07-25T01:34:29.298Z,23.76
2018-07-25T01:35:29.304Z,23.74
2018-07-25T01:36:29.309Z,23.69
2018-07-25T01:37:29.317Z,23.68
2018-07-25T01:38:29.322Z,23.62
2018-07-25T01:39:29.328Z,23.66
2018-07-25T01:40:29.335Z,23.66
2018-07-25T01:41:29.340Z,23.56
2018-07-25T01:42:29.347Z,23.51
2018-07-25T01:43:29.353Z,23.46
2018-07-25T01:44:29.358Z,23.47
2018-07-25T01:45:29.365Z,23.54
2018-07-25T01:46:29.371Z,23.47
2018-07-25T01:47:29.376Z,23.44
2018-07-25T01:48:29.382Z,23.39
2018-07-25T01:49:29.388Z,23.36
2018-07-25T01:50:29.395Z,23.39
2018-07-25T01:51:29.401Z,23.41
2018-07-25T01:52:29.407Z,23.40
2018-07-25T01:53:29.416Z,23.39
2018-07-25T01:54:29.422Z,23.21
2018-07-25T01:55:29.425Z,23.31
2018-07-25T01:56:29.430Z,23.32
2018-07-25T01:57:29.437Z,23.23
2018-07-25T01:58:29.442Z,23.32
2018-07-25T01:59:29.446Z,23.15
2018-07-25T02:00:29.454Z,23.23
2018-07-25T02:01:29.522Z,23.09
2018-07-25T02:02:29.466Z,23.03
2018-07-25T02:03:29.471Z,23.12
2018-07-25T02:04:29.475Z,23.08
2018-07-25T02:05:29.482Z,23.03
2018-07-25T02:06:29.487Z,23.15
2018-07-25T02:07:29.492Z,23.00
2018-07-25T02:08:29.499Z,23.10
2018-07-25T02:09:29.505Z,23.08
2018-07-25T02:11:29.577Z,23.09
2018-07-25T02:12:29.521Z,23.21
2018-07-25T02:13:29.527Z,23.23
2018-07-25T02:14:29.532Z,23.08
2018-07-25T02:15:29.537Z,23.09
2018-07-25T02:16:29.543Z,23.12
2018-07-25T02:17:29.548Z,23.10
2018-07-25T02:18:29.555Z,23.05
2018-07-25T02:19:29.575Z,23.05
2018-07-25T02:20:29.565Z,23.13
2018-07-25T02:21:29.571Z,23.09
2018-07-25T02:22:29.576Z,23.12
2018-07-25T02:23:29.582Z,23.06
2018-07-25T02:24:29.590Z,23.12
2018-07-25T02:25:29.593Z,23.08
2018-07-25T02:26:29.598Z,23.08
2018-07-25T02:27:29.603Z,23.09
2018-07-25T02:28:29.608Z,23.09
2018-07-25T02:29:29.614Z,23.06
2018-07-25T02:30:29.622Z,23.06
2018-07-25T02:31:29.625Z,23.09
2018-07-25T02:32:29.632Z,23.13
2018-07-25T02:33:29.637Z,23.18
2018-07-25T02:34:29.644Z,23.20
2018-07-25T02:35:29.649Z,23.24
2018-07-25T02:36:29.653Z,23.20
2018-07-25T02:37:29.659Z,23.21
2018-07-25T02:38:29.669Z,23.25
2018-07-25T02:39:29.672Z,23.18
2018-07-25T02:40:29.676Z,23.24
2018-07-25T02:41:29.681Z,23.31
2018-07-25T02:42:29.738Z,23.36
2018-07-25T02:43:29.693Z,23.43
2018-07-25T02:44:29.697Z,23.36
2018-07-25T02:45:29.703Z,23.43
2018-07-25T02:46:29.709Z,23.43
2018-07-25T02:47:29.716Z,23.25
2018-07-25T02:48:29.721Z,23.28
2018-07-25T02:49:29.724Z,23.39
2018-07-25T02:50:29.732Z,23.34
2018-07-25T02:51:29.736Z,23.27
2018-07-25T02:52:29.742Z,23.23
2018-07-25T02:53:29.747Z,23.24
2018-07-25T02:54:29.752Z,23.21
2018-07-25T02:55:29.758Z,23.31
2018-07-25T02:56:29.764Z,23.21
2018-07-25T02:57:29.771Z,23.25
2018-07-25T02:58:29.780Z,23.13
2018-07-25T02:59:29.785Z,23.15
2018-07-25T03:00:29.788Z,23.09
2018-07-25T03:01:29.792Z,23.06
2018-07-25T03:02:29.799Z,23.08
2018-07-25T03:03:29.802Z,23.13
2018-07-25T03:04:29.808Z,23.13
2018-07-25T03:05:29.813Z,22.96
2018-07-25T03:06:29.819Z,23.06
2018-07-25T03:07:29.824Z,23.08
2018-07-25T03:08:29.830Z,23.12
2018-07-25T03:09:29.836Z,23.06
2018-07-25T03:10:29.841Z,23.05
2018-07-25T03:11:29.845Z,23.06
2018-07-25T03:12:29.852Z,23.06
2018-07-25T03:13:29.858Z,23.02
2018-07-25T03:14:29.863Z,23.09
2018-07-25T03:15:29.868Z,23.06
2018-07-25T03:16:29.874Z,23.08
2018-07-25T03:17:29.880Z,23.08
2018-07-25T03:18:29.885Z,23.09
2018-07-25T03:19:29.891Z,23.10
2018-07-25T03:20:29.903Z,23.09
2018-07-25T03:21:29.902Z,23.12
2018-07-25T03:22:29.907Z,23.12
2018-07-25T03:23:29.912Z,23.03
2018-07-25T03:24:29.919Z,23.03
2018-07-25T03:25:29.923Z,23.00
2018-07-25T03:26:29.965Z,23.02
2018-07-25T03:27:29.934Z,22.99
2018-07-25T03:28:29.939Z,22.98
2018-07-25T03:29:29.947Z,22.99
2018-07-25T03:30:29.951Z,22.96
2018-07-25T03:31:29.996Z,23.02
2018-07-25T03:32:29.960Z,22.96
2018-07-25T03:33:29.967Z,22.90
2018-07-25T03:34:29.973Z,22.93
2018-07-25T03:35:29.977Z,22.94
2018-07-25T03:36:29.986Z,22.94
2018-07-25T03:37:30.017Z,22.91
2018-07-25T03:38:29.995Z,22.94
2018-07-25T03:39:30.001Z,22.91
2018-07-25T03:40:30.004Z,22.96
2018-07-25T03:41:30.011Z,22.94
2018-07-25T03:42:30.017Z,22.88
2018-07-25T03:43:30.020Z,22.96
2018-07-25T03:44:30.027Z,22.87
2018-07-25T03:45:30.032Z,22.83
2018-07-25T03:46:30.038Z,22.80
2018-07-25T03:47:30.042Z,22.83
2018-07-25T03:48:30.048Z,22.80
2018-07-25T03:49:30.055Z,22.75
2018-07-25T03:50:30.059Z,22.72
2018-07-25T03:51:30.066Z,22.80
2018-07-25T03:52:30.069Z,22.76
2018-07-25T03:53:30.075Z,22.72
2018-07-25T03:54:30.080Z,22.76
2018-07-25T03:55:30.089Z,22.76
2018-07-25T03:56:30.092Z,22.75
2018-07-25T03:57:30.096Z,22.78
2018-07-25T03:58:30.103Z,22.78
2018-07-25T03:59:30.106Z,22.78
2018-07-25T04:00:30.112Z,22.81
2018-07-25T04:01:30.118Z,22.76
2018-07-25T04:02:30.161Z,22.81
2018-07-25T04:03:30.128Z,22.68
2018-07-25T04:04:30.134Z,22.68
2018-07-25T04:05:30.140Z,22.65
2018-07-25T04:06:30.146Z,22.72
2018-07-25T04:07:30.150Z,22.68
2018-07-25T04:08:30.157Z,22.69
2018-07-25T04:09:30.162Z,22.65
2018-07-25T04:10:30.168Z,22.65
2018-07-25T04:11:30.173Z,22.68
2018-07-25T04:12:30.177Z,22.69
2018-07-25T04:13:30.183Z,22.69
2018-07-25T04:14:30.191Z,22.69
2018-07-25T04:15:30.194Z,22.72
2018-07-25T04:16:30.201Z,22.69
2018-07-25T04:17:30.206Z,22.70
2018-07-25T04:18:30.211Z,22.73
2018-07-25T04:19:30.215Z,22.76
2018-07-25T04:20:30.222Z,22.81
2018-07-25T04:21:30.229Z,22.84
2018-07-25T04:22:30.233Z,22.84
2018-07-25T04:23:30.239Z,22.84
2018-07-25T04:24:30.243Z,22.81
2018-07-25T04:25:30.251Z,22.84
2018-07-25T04:26:30.260Z,22.84
2018-07-25T04:27:30.269Z,22.84
2018-07-25T04:28:30.264Z,22.78
2018-07-25T04:29:30.270Z,22.73
2018-07-25T04:30:30.277Z,22.80
2018-07-25T04:31:30.285Z,22.84
2018-07-25T04:32:30.287Z,22.83
2018-07-25T04:33:30.293Z,22.83
2018-07-25T04:34:30.301Z,22.80
2018-07-25T04:35:30.304Z,22.88
2018-07-25T04:36:30.309Z,22.93
2018-07-25T04:37:30.318Z,22.90
2018-07-25T04:38:30.322Z,22.98
2018-07-25T04:39:30.326Z,22.96
2018-07-25T04:40:30.331Z,22.98
2018-07-25T04:41:30.337Z,22.99
2018-07-25T04:42:30.343Z,23.00
2018-07-25T04:43:30.347Z,23.09
2018-07-25T04:44:30.364Z,23.02
2018-07-25T04:45:30.359Z,23.10
2018-07-25T04:46:30.375Z,23.06
2018-07-25T04:47:30.370Z,23.09
2018-07-25T04:48:30.375Z,23.15
2018-07-25T04:49:30.382Z,23.23
2018-07-25T04:50:30.387Z,23.23
2018-07-25T04:51:30.393Z,23.21
2018-07-25T04:52:30.405Z,23.27
2018-07-25T04:53:30.405Z,23.24
2018-07-25T04:54:30.410Z,23.32
2018-07-25T04:55:30.415Z,23.25
2018-07-25T04:56:30.429Z,23.28
2018-07-25T04:57:30.427Z,23.28
2018-07-25T04:58:30.433Z,23.28
2018-07-25T04:59:30.443Z,23.21
2018-07-25T05:00:30.445Z,23.21
2018-07-25T05:01:30.450Z,23.25
2018-07-25T05:02:30.457Z,23.27
2018-07-25T05:03:30.463Z,23.21
2018-07-25T05:04:30.469Z,23.21
2018-07-25T05:05:30.473Z,23.20
2018-07-25T05:06:30.479Z,23.32
2018-07-25T05:07:30.484Z,23.31
2018-07-25T05:08:30.491Z,23.32
2018-07-25T05:09:30.497Z,23.24
2018-07-25T05:10:30.504Z,23.24
2018-07-25T05:11:30.509Z,23.20
2018-07-25T05:12:30.522Z,23.21
2018-07-25T05:13:30.521Z,23.24
2018-07-25T05:14:30.527Z,23.20
2018-07-25T05:15:30.532Z,23.23
2018-07-25T05:16:30.537Z,23.32
2018-07-25T05:17:30.544Z,23.31
2018-07-25T05:18:30.550Z,23.36
2018-07-25T05:19:30.554Z,23.44
2018-07-25T05:20:30.560Z,23.62
2018-07-25T05:21:30.605Z,23.69
2018-07-25T05:22:30.572Z,23.78
2018-07-25T05:23:30.582Z,23.86
2018-07-25T05:24:30.583Z,24.05
2018-07-25T05:25:30.590Z,24.10
2018-07-25T05:26:30.596Z,24.08
2018-07-25T05:27:30.604Z,24.16
2018-07-25T05:28:30.606Z,24.05
2018-07-25T05:29:30.613Z,24.08
2018-07-25T05:30:30.619Z,24.16
2018-07-25T05:31:30.623Z,24.16
2018-07-25T05:32:30.630Z,24.30
2018-07-25T05:33:30.638Z,24.29
2018-07-25T05:34:30.646Z,24.35
2018-07-25T05:35:30.648Z,24.50
2018-07-25T05:36:30.653Z,24.47
2018-07-25T05:37:30.661Z,24.45
2018-07-25T05:38:30.667Z,24.51
2018-07-25T05:39:30.671Z,24.53
2018-07-25T05:40:30.679Z,24.53
2018-07-25T05:41:30.685Z,24.63
2018-07-25T05:42:30.690Z,24.55
2018-07-25T05:43:30.697Z,24.66
2018-07-25T05:44:30.702Z,24.70
2018-07-25T05:45:30.708Z,24.63
2018-07-25T05:46:30.714Z,24.60
2018-07-25T05:47:30.723Z,24.77
2018-07-25T05:48:30.727Z,24.66
2018-07-25T05:49:30.823Z,24.66
2018-07-25T05:50:30.741Z,24.66
2018-07-25T05:51:30.744Z,24.80
2018-07-25T05:52:30.751Z,24.81
2018-07-25T05:53:30.759Z,24.76
2018-07-25T05:54:30.766Z,24.84
2018-07-25T05:55:30.771Z,25.01
2018-07-25T05:56:30.778Z,24.95
2018-07-25T05:57:30.783Z,24.96
2018-07-25T05:58:30.791Z,25.08
2018-07-25T05:59:30.796Z,24.99
2018-07-25T06:00:30.803Z,25.10
2018-07-25T06:01:30.809Z,25.21
2018-07-25T06:02:30.816Z,25.10
2018-07-25T06:03:30.828Z,25.11
2018-07-25T06:04:30.829Z,25.11
2018-07-25T06:05:30.835Z,25.17
2018-07-25T06:06:30.843Z,25.14
2018-07-25T06:07:30.848Z,25.21
2018-07-25T06:08:30.857Z,25.18
2018-07-25T06:09:30.861Z,25.26
2018-07-25T06:10:30.867Z,25.16
2018-07-25T06:11:30.873Z,25.32
2018-07-25T06:12:30.881Z,25.32
2018-07-25T06:13:30.888Z,25.33
2018-07-25T06:14:30.895Z,25.46
2018-07-25T06:15:30.902Z,25.54
2018-07-25T06:16:30.908Z,25.60
2018-07-25T06:17:30.918Z,25.69
2018-07-25T06:18:30.925Z,25.68
2018-07-25T06:19:30.927Z,25.68
2018-07-25T06:20:30.996Z,25.77
2018-07-25T06:21:30.943Z,25.87
2018-07-25T06:22:30.951Z,25.93
2018-07-25T06:23:30.956Z,25.90
2018-07-25T06:24:30.965Z,26.03
2018-07-25T06:25:30.970Z,26.05
2018-07-25T06:26:30.976Z,26.06
2018-07-25T06:27:30.984Z,26.07
2018-07-25T06:28:30.990Z,26.22
2018-07-25T06:29:30.998Z,26.23
2018-07-25T06:30:31.005Z,26.25
2018-07-25T06:31:31.011Z,26.23
2018-07-25T06:32:31.020Z,26.38
2018-07-25T06:33:31.026Z,26.36
2018-07-25T06:34:31.034Z,26.38
2018-07-25T06:35:31.041Z,26.53
2018-07-25T06:36:31.049Z,26.56
2018-07-25T06:37:31.055Z,26.56
2018-07-25T06:38:31.062Z,26.70
2018-07-25T06:39:31.071Z,26.73
2018-07-25T06:40:31.077Z,26.81
2018-07-25T06:41:31.085Z,26.81
2018-07-25T06:42:31.094Z,26.75
2018-07-25T06:43:31.122Z,26.71
2018-07-25T06:44:31.107Z,26.84
2018-07-25T06:45:31.115Z,26.78
2018-07-25T06:46:31.123Z,26.90
2018-07-25T06:47:31.129Z,26.84
2018-07-25T06:48:31.138Z,26.93
2018-07-25T06:49:31.145Z,26.96
2018-07-25T06:50:31.153Z,26.95
2018-07-25T06:51:31.160Z,27.00
2018-07-25T06:52:31.167Z,27.10
2018-07-25T06:53:31.176Z,27.14
2018-07-25T06:54:31.183Z,27.15
2018-07-25T06:55:31.191Z,27.21
2018-07-25T06:56:31.198Z,27.17
2018-07-25T06:57:31.209Z,27.32
2018-07-25T06:58:31.220Z,27.21
2018-07-25T06:59:31.223Z,27.45
2018-07-25T07:00:31.230Z,27.52
2018-07-25T07:01:31.239Z,27.54
2018-07-25T07:02:31.247Z,27.49
2018-07-25T07:03:31.255Z,27.52
2018-07-25T07:04:31.262Z,27.54
2018-07-25T07:05:31.269Z,27.70
2018-07-25T07:06:31.314Z,27.64
2018-07-25T07:07:31.285Z,27.74
2018-07-25T07:08:31.295Z,27.70
2018-07-25T07:09:31.303Z,27.74
2018-07-25T07:10:31.310Z,27.74
2018-07-25T07:11:31.316Z,27.71
2018-07-25T07:12:31.327Z,27.75
2018-07-25T07:13:31.334Z,27.80
2018-07-25T07:14:31.344Z,27.80
2018-07-25T07:15:31.351Z,27.82
2018-07-25T07:16:31.360Z,27.83
2018-07-25T07:17:31.423Z,27.85
2018-07-25T07:18:31.401Z,27.96
2018-07-25T07:19:31.383Z,28.00
2018-07-25T07:20:31.392Z,28.15
2018-07-25T07:21:31.402Z,28.04
2018-07-25T07:22:31.409Z,27.96
2018-07-25T07:23:31.419Z,27.96
2018-07-25T07:24:31.426Z,27.98
2018-07-25T07:25:31.434Z,27.98
2018-07-25T07:26:31.444Z,27.95
2018-07-25T07:27:31.451Z,27.98
2018-07-25T07:28:31.460Z,27.98
2018-07-25T07:29:31.473Z,28.08
2018-07-25T07:30:31.478Z,28.12
2018-07-25T07:31:31.573Z,28.12
2018-07-25T07:32:31.494Z,28.12
2018-07-25T07:33:31.503Z,28.27
2018-07-25T07:34:31.516Z,28.32
2018-07-25T07:35:31.521Z,28.44
2018-07-25T07:36:31.529Z,28.54
2018-07-25T07:37:31.604Z,28.60
2018-07-25T07:38:31.545Z,28.67
2018-07-25T07:39:31.554Z,28.67
2018-07-25T07:40:31.562Z,28.57
2018-07-25T07:41:31.572Z,28.66
2018-07-25T07:42:31.581Z,28.72
2018-07-25T07:43:31.590Z,28.89
2018-07-25T07:44:31.600Z,28.86
2018-07-25T07:45:31.627Z,28.96
2018-07-25T07:46:31.616Z,28.91
2018-07-25T07:47:31.676Z,28.96
2018-07-25T07:48:31.634Z,29.22
2018-07-25T07:49:31.642Z,29.27
2018-07-25T07:50:31.652Z,29.61
2018-07-25T07:51:31.661Z,29.71
2018-07-25T07:52:31.671Z,30.06
2018-07-25T07:53:31.681Z,30.70
2018-07-25T07:54:31.692Z,31.46
2018-07-25T07:55:31.702Z,32.38
2018-07-25T07:56:31.713Z,32.86
2018-07-25T07:57:31.724Z,33.05
2018-07-25T07:58:31.737Z,32.90
2018-07-25T07:59:31.779Z,32.70
2018-07-25T08:00:31.763Z,33.09
2018-07-25T08:01:31.777Z,33.37
2018-07-25T08:02:31.788Z,33.37
2018-07-25T08:03:31.804Z,33.90
2018-07-25T08:04:31.817Z,34.52
2018-07-25T08:05:31.830Z,34.61
2018-07-25T08:06:31.844Z,34.16
2018-07-25T08:07:31.857Z,34.30
2018-07-25T08:08:31.874Z,34.55
2018-07-25T08:09:31.887Z,35.11
2018-07-25T08:10:31.921Z,34.99
2018-07-25T08:11:31.915Z,35.74
2018-07-25T08:12:31.930Z,35.52
2018-07-25T08:13:31.947Z,34.86
2018-07-25T08:14:31.961Z,34.52
2018-07-25T08:15:31.975Z,34.75
2018-07-25T08:16:31.992Z,35.05
2018-07-25T08:17:32.056Z,34.48
2018-07-25T08:18:32.022Z,34.54
2018-07-25T08:19:32.037Z,35.00
2018-07-25T08:20:32.053Z,35.55
2018-07-25T08:21:32.076Z,36.24
2018-07-25T08:22:32.086Z,36.55
2018-07-25T08:23:32.104Z,36.96
2018-07-25T08:24:32.117Z,37.35
2018-07-25T08:25:32.134Z,37.59
2018-07-25T08:26:32.151Z,37.48
2018-07-25T08:27:32.165Z,37.70
2018-07-25T08:28:32.182Z,38.08
2018-07-25T08:29:32.200Z,38.30
2018-07-25T08:30:32.216Z,38.84
2018-07-25T08:31:32.232Z,38.79
2018-07-25T08:32:32.250Z,37.74
2018-07-25T08:33:32.267Z,38.09
2018-07-25T08:34:32.292Z,38.50
2018-07-25T08:35:32.312Z,38.48
2018-07-25T08:36:32.325Z,37.96
2018-07-25T08:37:32.337Z,37.94
2018-07-25T08:38:32.354Z,37.10
2018-07-25T08:39:32.372Z,37.13
2018-07-25T08:40:32.387Z,37.67
2018-07-25T08:41:32.418Z,37.03
2018-07-25T08:42:32.424Z,36.70
2018-07-25T08:43:32.441Z,36.80
2018-07-25T08:44:32.460Z,37.35
2018-07-25T08:45:32.477Z,37.86
2018-07-25T08:46:32.496Z,38.11
2018-07-25T08:47:32.513Z,38.26
2018-07-25T08:48:32.535Z,38.43
2018-07-25T08:49:32.549Z,38.61
2018-07-25T08:50:32.571Z,38.95
2018-07-25T08:51:32.585Z,39.11
2018-07-25T08:52:32.666Z,38.60
2018-07-25T08:53:32.621Z,38.11
2018-07-25T08:54:32.640Z,38.40
2018-07-25T08:55:32.658Z,38.65
2018-07-25T08:56:32.676Z,38.21
2018-07-25T08:57:32.695Z,38.19
2018-07-25T08:58:32.713Z,38.06
2018-07-25T08:59:32.731Z,38.23
2018-07-25T09:00:32.805Z,38.68
2018-07-25T09:01:32.769Z,37.11
2018-07-25T09:02:32.787Z,36.73
2018-07-25T09:03:32.805Z,37.48
2018-07-25T09:04:32.823Z,38.21
2018-07-25T09:05:32.844Z,38.73
2018-07-25T09:06:32.880Z,39.26
2018-07-25T09:07:32.925Z,39.26
2018-07-25T09:08:32.901Z,39.55
2018-07-25T09:09:32.937Z,39.43
2018-07-25T09:10:32.936Z,37.77
2018-07-25T09:11:32.997Z,36.83
2018-07-25T09:12:33.030Z,36.72
2018-07-25T09:13:32.994Z,36.58
2018-07-25T09:14:33.011Z,36.98
2018-07-25T09:15:33.028Z,37.53
2018-07-25T09:16:33.048Z,37.67
2018-07-25T09:17:33.070Z,37.60
2018-07-25T09:18:33.086Z,37.78
2018-07-25T09:19:33.104Z,37.67
2018-07-25T09:20:33.123Z,37.48
2018-07-25T09:21:33.146Z,37.83
2018-07-25T09:22:33.162Z,38.33
2018-07-25T09:23:33.179Z,39.00
2018-07-25T09:24:33.197Z,39.51
2018-07-25T09:25:33.273Z,40.04
2018-07-25T09:26:33.235Z,40.21
2018-07-25T09:27:33.254Z,40.15
2018-07-25T09:28:33.274Z,39.87
2018-07-25T09:29:33.296Z,39.24
2018-07-25T09:30:33.313Z,38.97
2018-07-25T09:31:33.331Z,39.53
2018-07-25T09:32:33.349Z,39.90
2018-07-25T09:33:33.369Z,40.47
2018-07-25T09:34:33.388Z,40.59
2018-07-25T09:35:33.408Z,40.26
2018-07-25T09:36:33.426Z,40.15
2018-07-25T09:37:33.446Z,40.34
2018-07-25T09:38:33.465Z,40.80
2018-07-25T09:39:33.487Z,40.53
2018-07-25T09:40:33.506Z,39.48
2018-07-25T09:41:33.524Z,38.62
2018-07-25T09:42:33.545Z,38.64
2018-07-25T09:43:33.562Z,38.58
2018-07-25T09:44:33.580Z,38.48
2018-07-25T09:45:33.600Z,38.58
2018-07-25T09:46:33.674Z,38.76
2018-07-25T09:47:33.639Z,39.26
2018-07-25T09:48:33.660Z,39.83
2018-07-25T09:49:33.679Z,40.20
2018-07-25T09:50:33.698Z,40.05
2018-07-25T09:51:33.718Z,40.02
2018-07-25T09:52:33.738Z,40.20
2018-07-25T09:53:33.763Z,40.53
2018-07-25T09:54:33.790Z,40.85
2018-07-25T09:55:33.795Z,40.84
2018-07-25T09:56:33.813Z,40.51
2018-07-25T09:57:33.835Z,40.53
2018-07-25T09:58:33.855Z,40.23
2018-07-25T09:59:33.873Z,39.96
2018-07-25T10:00:33.893Z,39.53
2018-07-25T10:01:33.931Z,38.34
2018-07-25T10:02:33.934Z,37.28
2018-07-25T10:03:33.953Z,36.55
2018-07-25T10:04:33.971Z,37.47
2018-07-25T10:05:34.000Z,38.20
2018-07-25T10:06:34.012Z,38.31
2018-07-25T10:07:34.044Z,37.92
2018-07-25T10:08:34.050Z,38.21
2018-07-25T10:09:34.068Z,38.33
2018-07-25T10:10:34.089Z,38.97
2018-07-25T10:11:34.106Z,39.37
2018-07-25T10:12:34.125Z,39.65
2018-07-25T10:13:34.152Z,38.62
2018-07-25T10:14:34.188Z,38.55
2018-07-25T10:15:34.187Z,38.42
2018-07-25T10:16:34.220Z,38.33
2018-07-25T10:17:34.228Z,38.40
2018-07-25T10:18:34.259Z,37.40
2018-07-25T10:19:34.256Z,38.14
2018-07-25T10:20:34.296Z,38.82
2018-07-25T10:21:34.307Z,38.48
2018-07-25T10:22:34.315Z,38.50
2018-07-25T10:23:34.342Z,38.38
2018-07-25T10:24:34.350Z,38.79
2018-07-25T10:25:34.368Z,39.18
2018-07-25T10:26:34.387Z,39.77
2018-07-25T10:27:34.410Z,40.11
2018-07-25T10:28:34.427Z,40.53
2018-07-25T10:29:34.442Z,40.72
2018-07-25T10:30:34.459Z,40.73
2018-07-25T10:31:34.476Z,41.34
2018-07-25T10:32:34.494Z,40.69
2018-07-25T10:33:34.513Z,40.47
2018-07-25T10:34:34.533Z,40.30
2018-07-25T10:35:34.549Z,39.68
2018-07-25T10:36:34.567Z,39.25
2018-07-25T10:37:34.586Z,39.30
2018-07-25T10:38:34.603Z,39.34
2018-07-25T10:39:34.622Z,38.15
2018-07-25T10:40:34.639Z,38.21
2018-07-25T10:41:34.658Z,38.62
2018-07-25T10:42:34.732Z,38.31
2018-07-25T10:43:34.694Z,38.50
2018-07-25T10:44:34.712Z,38.12
2018-07-25T10:45:34.731Z,38.34
2018-07-25T10:46:34.747Z,38.74
2018-07-25T10:47:34.764Z,38.86
2018-07-25T10:48:34.782Z,39.14
2018-07-25T10:49:34.800Z,39.34
2018-07-25T10:50:34.823Z,39.55
2018-07-25T10:51:34.834Z,38.83
2018-07-25T10:52:34.851Z,38.50
2018-07-25T10:53:34.869Z,38.58
2018-07-25T10:54:34.888Z,39.03
2018-07-25T10:55:34.903Z,39.29
2018-07-25T10:56:34.923Z,38.82
2018-07-25T10:57:34.942Z,38.60
2018-07-25T10:58:34.957Z,38.83
2018-07-25T10:59:34.972Z,38.99
2018-07-25T11:00:34.989Z,39.21
2018-07-25T11:01:35.008Z,39.70
2018-07-25T11:02:35.026Z,39.52
2018-07-25T11:03:35.042Z,39.74
2018-07-25T11:04:35.059Z,39.19
2018-07-25T11:05:35.077Z,38.77
2018-07-25T11:06:35.095Z,38.58
2018-07-25T11:07:35.110Z,38.83
2018-07-25T11:08:35.128Z,38.69
2018-07-25T11:09:35.212Z,38.27
2018-07-25T11:10:35.165Z,38.09
2018-07-25T11:11:35.180Z,38.06
2018-07-25T11:12:35.198Z,38.19
2018-07-25T11:13:35.213Z,37.59
2018-07-25T11:14:35.231Z,37.93
2018-07-25T11:15:35.247Z,37.53
2018-07-25T11:16:35.324Z,37.65
2018-07-25T11:17:35.281Z,37.83
2018-07-25T11:18:35.298Z,37.63
2018-07-25T11:19:35.314Z,37.44
2018-07-25T11:20:35.332Z,37.08
2018-07-25T11:21:35.347Z,36.99
2018-07-25T11:22:35.365Z,37.15
2018-07-25T11:23:35.380Z,36.83
2018-07-25T11:24:35.396Z,37.29
2018-07-25T11:25:35.414Z,37.17
2018-07-25T11:26:35.429Z,37.14
2018-07-25T11:27:35.444Z,36.99
2018-07-25T11:28:35.459Z,36.62
2018-07-25T11:29:35.476Z,36.72
2018-07-25T11:30:35.492Z,36.76
2018-07-25T11:31:35.507Z,36.57
2018-07-25T11:32:35.555Z,36.62
2018-07-25T11:33:35.539Z,36.70
2018-07-25T11:34:35.554Z,36.39
2018-07-25T11:35:35.569Z,36.25
2018-07-25T11:36:35.585Z,36.05
2018-07-25T11:37:35.600Z,36.23
2018-07-25T11:38:35.619Z,36.17
2018-07-25T11:39:35.630Z,36.12
2018-07-25T11:40:35.648Z,35.83
2018-07-25T11:41:35.661Z,35.76
2018-07-25T11:42:35.678Z,35.46
2018-07-25T11:43:35.694Z,35.63
2018-07-25T11:44:35.707Z,35.79
2018-07-25T11:45:35.721Z,36.08
2018-07-25T11:46:35.737Z,36.16
2018-07-25T11:47:35.750Z,35.92
2018-07-25T11:48:35.765Z,35.97
2018-07-25T11:49:35.779Z,35.73
2018-07-25T11:50:35.795Z,35.49
2018-07-25T11:51:35.809Z,35.56
2018-07-25T11:52:35.822Z,35.46
2018-07-25T11:53:35.837Z,35.29
2018-07-25T11:54:35.853Z,34.90
2018-07-25T11:55:35.998Z,34.85
2018-07-25T11:56:35.882Z,34.99
2018-07-25T11:57:35.897Z,35.08
2018-07-25T11:58:35.908Z,35.24
2018-07-25T11:59:35.921Z,35.46
2018-07-25T12:00:35.937Z,35.61
2018-07-25T12:01:35.970Z,35.49
2018-07-25T12:02:35.965Z,35.19
2018-07-25T12:03:35.979Z,35.36
2018-07-25T12:04:35.994Z,35.45
2018-07-25T12:05:36.009Z,35.33
2018-07-25T12:06:36.055Z,35.49
2018-07-25T12:07:36.035Z,35.61
2018-07-25T12:08:36.050Z,35.67
2018-07-25T12:09:36.062Z,35.83
2018-07-25T12:10:36.077Z,35.89
2018-07-25T12:11:36.089Z,36.02
2018-07-25T12:12:36.104Z,35.18
2018-07-25T12:13:36.119Z,35.23
2018-07-25T12:14:36.131Z,35.48
2018-07-25T12:15:36.145Z,35.63
2018-07-25T12:16:36.158Z,35.66
2018-07-25T12:17:36.173Z,35.73
2018-07-25T12:18:36.187Z,35.86
2018-07-25T12:19:36.200Z,35.98
2018-07-25T12:20:36.212Z,36.08
2018-07-25T12:21:36.225Z,36.07
2018-07-25T12:22:36.241Z,36.07
2018-07-25T12:23:36.254Z,35.97
2018-07-25T12:24:36.268Z,35.85
2018-07-25T12:25:36.280Z,35.73
2018-07-25T12:26:36.303Z,35.82
2018-07-25T12:27:36.308Z,36.02
2018-07-25T12:28:36.322Z,36.21
2018-07-25T12:29:36.335Z,35.85
2018-07-25T12:30:36.349Z,36.02
2018-07-25T12:31:36.361Z,36.31
2018-07-25T12:32:36.375Z,36.07
2018-07-25T12:33:36.391Z,35.80
2018-07-25T12:34:36.403Z,35.67
2018-07-25T12:35:36.417Z,35.48
2018-07-25T12:36:36.430Z,35.48
2018-07-25T12:37:36.447Z,35.64
2018-07-25T12:38:36.457Z,35.66
2018-07-25T12:39:36.470Z,35.63
2018-07-25T12:40:36.484Z,35.49
2018-07-25T12:41:36.533Z,35.64
2018-07-25T12:42:36.510Z,35.46
2018-07-25T12:43:36.526Z,35.30
2018-07-25T12:44:36.537Z,35.24
2018-07-25T12:45:36.551Z,35.45
2018-07-25T12:46:36.564Z,35.49
2018-07-25T12:47:36.579Z,35.41
2018-07-25T12:48:36.591Z,35.29
2018-07-25T12:49:36.604Z,35.58
2018-07-25T12:50:36.619Z,35.55
2018-07-25T12:51:36.630Z,35.52
2018-07-25T12:52:36.646Z,35.55
2018-07-25T12:53:36.657Z,35.56